createdAt,value
2022-08-05T00:00:52.113Z,29.60
2022-08-05T00:01:53.884Z,29.50
2022-08-05T00:02:55.829Z,29.50
2022-08-05T00:03:57.738Z,29.50
2022-08-05T00:04:59.502Z,29.50
2022-08-05T00:06:05.003Z,29.50
2022-08-05T00:07:59.440Z,29.70
2022-08-05T00:08:45.450Z,29.70
2022-08-05T00:09:49.222Z,29.50
2022-08-05T00:10:50.919Z,29.50
2022-08-05T00:11:55.766Z,29.50
2022-08-05T00:12:57.929Z,29.50
2022-08-05T00:13:59.741Z,29.50
2022-08-05T00:15:14.002Z,29.50
2022-08-05T00:16:35.620Z,29.50
2022-08-05T00:17:38.471Z,29.40
2022-08-05T00:18:46.017Z,29.40
2022-08-05T00:20:02.360Z,29.40
2022-08-05T00:21:06.511Z,29.40
2022-08-05T00:22:11.273Z,29.30
2022-08-05T00:23:13.428Z,29.30
2022-08-05T00:24:16.084Z,29.30
2022-08-05T00:25:21.080Z,29.30
2022-08-05T00:26:22.760Z,29.30
2022-08-05T00:27:28.564Z,29.30
2022-08-05T00:28:38.750Z,29.30
2022-08-05T00:29:42.354Z,29.30
2022-08-05T00:30:44.790Z,29.30
2022-08-05T00:32:12.703Z,29.30
2022-08-05T00:34:53.548Z,29.30
2022-08-05T00:35:03.791Z,29.30
2022-08-05T00:36:16.656Z,29.30
2022-08-05T00:37:35.661Z,29.30
2022-08-05T00:38:50.365Z,29.30
2022-08-05T00:39:58.732Z,29.30
2022-08-05T00:41:01.022Z,29.30
2022-08-05T00:42:02.928Z,29.30
2022-08-05T00:43:07.656Z,29.20
2022-08-05T00:44:09.499Z,29.20
2022-08-05T00:45:13.582Z,29.20
2022-08-05T00:46:15.354Z,29.20
2022-08-05T00:47:17.664Z,29.10
2022-08-05T00:48:31.502Z,29.10
2022-08-05T00:49:50.979Z,29.00
2022-08-05T00:50:53.664Z,29.00
2022-08-05T00:51:55.331Z,29.00
2022-08-05T00:52:57.014Z,29.00
2022-08-05T00:54:02.255Z,29.00
2022-08-05T00:55:05.464Z,29.00
2022-08-05T00:56:08.143Z,29.00
2022-08-05T00:57:09.967Z,29.00
2022-08-05T00:58:13.299Z,28.90
2022-08-05T00:59:15.006Z,28.90
2022-08-05T01:00:17.082Z,28.90
2022-08-05T01:01:24.926Z,28.90
2022-08-05T01:02:43.298Z,28.80
2022-08-05T01:03:49.917Z,28.80
2022-08-05T01:04:51.864Z,28.80
2022-08-05T01:05:54.650Z,28.80
2022-08-05T01:06:56.767Z,28.80
2022-08-05T01:08:40.291Z,28.80
2022-08-05T01:09:20.468Z,28.80
2022-08-05T01:10:30.244Z,28.80
2022-08-05T01:11:37.441Z,28.80
2022-08-05T01:13:05.294Z,28.80
2022-08-05T01:14:28.075Z,28.80
2022-08-05T01:15:39.044Z,28.80
2022-08-05T01:16:56.876Z,28.80
2022-08-05T01:18:04.676Z,28.80
2022-08-05T01:19:36.684Z,28.70
2022-08-05T01:21:02.708Z,28.80
2022-08-05T01:22:27.911Z,28.70
2022-08-05T01:23:56.306Z,28.70
2022-08-05T01:25:41.050Z,28.70
2022-08-05T01:27:19.142Z,28.70
2022-08-05T01:28:36.109Z,28.70
2022-08-05T01:29:43.114Z,28.70
2022-08-05T01:30:55.190Z,28.70
2022-08-05T01:32:02.597Z,28.70
2022-08-05T01:33:09.592Z,28.70
2022-08-05T01:34:20.532Z,28.70
2022-08-05T01:35:51.577Z,28.70
2022-08-05T01:37:00.507Z,28.70
2022-08-05T01:38:04.230Z,28.70
2022-08-05T01:39:05.950Z,28.70
2022-08-05T01:40:12.434Z,28.70
2022-08-05T01:41:17.027Z,28.70
2022-08-05T01:42:25.369Z,28.70
2022-08-05T01:43:29.662Z,28.70
2022-08-05T01:44:35.224Z,28.70
2022-08-05T01:45:43.158Z,28.70
2022-08-05T01:46:46.261Z,28.60
2022-08-05T01:47:54.453Z,28.60
2022-08-05T01:49:00.658Z,28.60
2022-08-05T01:50:36.142Z,28.60
2022-08-05T01:51:39.590Z,28.60
2022-08-05T01:52:43.751Z,28.60
2022-08-05T01:53:57.643Z,28.70
2022-08-05T01:55:05.688Z,28.60
2022-08-05T01:56:11.721Z,28.60
2022-08-05T01:58:11.543Z,28.60
2022-08-05T01:58:45.256Z,28.60
2022-08-05T01:59:49.371Z,28.50
2022-08-05T02:00:54.098Z,28.50
2022-08-05T02:01:59.902Z,28.50
2022-08-05T02:03:07.577Z,28.50
2022-08-05T02:04:28.813Z,28.50
2022-08-05T02:05:35.945Z,28.50
2022-08-05T02:06:39.428Z,28.40
2022-08-05T02:07:47.255Z,28.50
2022-08-05T02:09:02.473Z,28.40
2022-08-05T02:10:05.545Z,28.40
2022-08-05T02:11:12.563Z,28.50
2022-08-05T02:12:40.676Z,28.30
2022-08-05T02:14:17.955Z,28.40
2022-08-05T02:15:33.281Z,28.40
2022-08-05T02:16:52.181Z,28.40
2022-08-05T02:18:31.767Z,28.40
2022-08-05T02:19:27.891Z,28.30
2022-08-05T02:20:39.115Z,28.30
2022-08-05T02:21:49.247Z,28.50
2022-08-05T02:23:00.975Z,28.30
2022-08-05T02:24:08.158Z,28.30
2022-08-05T02:25:15.785Z,28.30
2022-08-05T02:26:23.301Z,28.30
2022-08-05T02:27:58.070Z,28.30
2022-08-05T02:28:54.659Z,28.30
2022-08-05T02:30:00.097Z,28.20
2022-08-05T02:31:16.696Z,28.20
2022-08-05T02:32:29.438Z,28.20
2022-08-05T02:33:38.447Z,28.20
2022-08-05T02:34:42.165Z,28.20
2022-08-05T02:35:55.908Z,28.10
2022-08-05T02:37:04.416Z,28.10
2022-08-05T02:38:09.447Z,28.20
2022-08-05T02:39:13.055Z,28.20
2022-08-05T02:40:17.227Z,28.20
2022-08-05T02:41:20.859Z,28.20
2022-08-05T02:42:27.358Z,28.20
2022-08-05T02:43:32.456Z,28.20
2022-08-05T02:44:39.638Z,28.20
2022-08-05T02:45:52.412Z,28.20
2022-08-05T02:47:00.156Z,28.20
2022-08-05T02:48:11.688Z,28.10
2022-08-05T02:49:18.019Z,28.10
2022-08-05T02:50:25.524Z,28.10
2022-08-05T02:51:28.283Z,28.10
2022-08-05T02:52:50.850Z,28.10
2022-08-05T02:53:54.905Z,28.10
2022-08-05T02:54:57.687Z,28.10
2022-08-05T02:56:02.237Z,28.20
2022-08-05T02:58:10.466Z,28.10
2022-08-05T02:58:36.299Z,28.10
2022-08-05T02:59:50.636Z,28.20
2022-08-05T03:00:56.565Z,28.20
2022-08-05T03:02:00.783Z,28.20
2022-08-05T03:03:10.282Z,28.20
2022-08-05T03:04:14.579Z,28.20
2022-08-05T03:05:21.632Z,28.10
2022-08-05T03:06:56.561Z,28.20
2022-08-05T03:08:08.526Z,28.20
2022-08-05T03:09:15.729Z,28.10
2022-08-05T03:10:24.638Z,28.10
2022-08-05T03:11:55.263Z,28.00
2022-08-05T03:12:51.725Z,28.20
2022-08-05T03:14:03.362Z,28.00
2022-08-05T03:15:09.205Z,28.00
2022-08-05T03:16:11.149Z,28.00
2022-08-05T03:17:17.497Z,27.90
2022-08-05T03:18:29.762Z,27.90
2022-08-05T03:19:33.941Z,27.90
2022-08-05T03:20:36.540Z,27.90
2022-08-05T03:21:41.303Z,28.00
2022-08-05T03:22:50.612Z,27.90
2022-08-05T03:23:52.872Z,27.90
2022-08-05T03:24:55.712Z,27.90
2022-08-05T03:26:32.041Z,27.90
2022-08-05T03:27:39.294Z,27.90
2022-08-05T03:28:48.897Z,27.90
2022-08-05T03:30:07.416Z,27.90
2022-08-05T03:31:11.515Z,27.90
2022-08-05T03:32:33.413Z,28.00
2022-08-05T03:33:51.224Z,27.90
2022-08-05T03:34:54.626Z,27.90
2022-08-05T03:35:58.358Z,27.80
2022-08-05T03:37:00.843Z,27.80
2022-08-05T03:38:03.960Z,27.80
2022-08-05T03:39:12.989Z,27.80
2022-08-05T03:40:24.381Z,27.80
2022-08-05T03:41:38.603Z,27.80
2022-08-05T03:42:52.063Z,27.90
2022-08-05T03:44:08.272Z,27.90
2022-08-05T03:45:22.551Z,27.90
2022-08-05T03:46:26.765Z,27.90
2022-08-05T03:48:58.610Z,27.80
2022-08-05T03:50:00.374Z,27.90
2022-08-05T03:52:37.213Z,27.90
2022-08-05T03:54:59.245Z,27.90
2022-08-05T03:55:07.010Z,27.90
2022-08-05T03:56:10.395Z,27.80
2022-08-05T03:57:16.382Z,27.90
2022-08-05T03:58:37.910Z,27.90
2022-08-05T03:59:54.703Z,27.80
2022-08-05T04:00:59.889Z,27.80
2022-08-05T04:02:03.605Z,27.80
2022-08-05T04:03:06.589Z,27.80
2022-08-05T04:04:10.993Z,27.80
2022-08-05T04:05:13.489Z,27.80
2022-08-05T04:06:17.605Z,27.80
2022-08-05T04:07:23.775Z,27.90
2022-08-05T04:08:30.351Z,27.80
2022-08-05T04:09:38.475Z,27.90
2022-08-05T04:10:55.569Z,27.90
2022-08-05T04:11:57.632Z,27.80
2022-08-05T04:13:00.270Z,27.70
2022-08-05T04:14:05.327Z,27.80
2022-08-05T04:15:07.819Z,27.70
2022-08-05T04:16:10.305Z,27.80
2022-08-05T04:17:16.840Z,27.70
2022-08-05T04:18:20.535Z,27.80
2022-08-05T04:19:24.370Z,27.80
2022-08-05T04:20:26.018Z,27.70
2022-08-05T04:22:08.560Z,27.80
2022-08-05T04:22:50.558Z,27.70
2022-08-05T04:24:05.758Z,27.80
2022-08-05T04:25:09.157Z,27.70
2022-08-05T04:26:14.618Z,27.70
2022-08-05T04:27:19.236Z,27.70
2022-08-05T04:28:31.010Z,27.70
2022-08-05T04:29:33.764Z,27.70
2022-08-05T04:30:36.014Z,27.70
2022-08-05T04:31:38.681Z,27.70
2022-08-05T04:32:41.366Z,27.70
2022-08-05T04:34:18.713Z,27.70
2022-08-05T04:35:06.491Z,27.60
2022-08-05T04:36:16.155Z,27.70
2022-08-05T04:38:00.898Z,27.70
2022-08-05T04:38:55.681Z,27.70
2022-08-05T04:39:59.519Z,27.60
2022-08-05T04:41:01.195Z,27.60
2022-08-05T04:42:05.697Z,27.60
2022-08-05T04:43:10.946Z,27.60
2022-08-05T04:44:29.044Z,27.60
2022-08-05T04:45:48.966Z,27.60
2022-08-05T04:46:54.028Z,27.60
2022-08-05T04:48:10.332Z,27.60
2022-08-05T04:49:24.802Z,27.60
2022-08-05T04:51:02.795Z,27.60
2022-08-05T04:52:09.019Z,27.60
2022-08-05T04:53:12.556Z,27.60
2022-08-05T04:54:15.706Z,27.60
2022-08-05T04:55:17.423Z,27.60
2022-08-05T04:56:39.493Z,27.60
2022-08-05T04:57:47.678Z,27.60
2022-08-05T04:58:53.597Z,27.60
2022-08-05T04:59:55.250Z,27.60
2022-08-05T05:00:56.964Z,27.50
2022-08-05T05:02:06.744Z,27.50
2022-08-05T05:03:20.499Z,27.60
2022-08-05T05:04:22.255Z,27.60
2022-08-05T05:05:28.420Z,27.50
2022-08-05T05:06:40.040Z,27.50
2022-08-05T05:07:52.868Z,27.50
2022-08-05T05:09:00.669Z,27.40
2022-08-05T05:10:07.313Z,27.40
2022-08-05T05:11:09.221Z,27.40
2022-08-05T05:12:12.203Z,27.40
2022-08-05T05:13:16.285Z,27.30
2022-08-05T05:14:19.153Z,27.30
2022-08-05T05:15:56.632Z,27.30
2022-08-05T05:16:55.081Z,27.30
2022-08-05T05:17:57.880Z,27.20
2022-08-05T05:19:18.777Z,27.20
2022-08-05T05:20:21.265Z,27.20
2022-08-05T05:21:29.843Z,27.20
2022-08-05T05:22:35.393Z,27.20
2022-08-05T05:24:04.101Z,27.20
2022-08-05T05:25:16.611Z,27.30
2022-08-05T05:26:19.316Z,27.30
2022-08-05T05:27:21.286Z,27.50
2022-08-05T05:28:24.083Z,27.30
2022-08-05T05:30:03.571Z,27.40
2022-08-05T05:30:49.707Z,27.30
2022-08-05T05:31:51.730Z,27.40
2022-08-05T05:32:54.693Z,27.40
2022-08-05T05:33:59.262Z,27.40
2022-08-05T05:35:03.593Z,27.40
2022-08-05T05:36:08.028Z,27.20
2022-08-05T05:37:15.166Z,27.50
2022-08-05T05:38:22.775Z,27.50
2022-08-05T05:39:34.459Z,27.50
2022-08-05T05:40:37.924Z,27.60
2022-08-05T05:41:45.407Z,27.60
2022-08-05T05:42:56.331Z,27.60
2022-08-05T05:44:00.433Z,27.70
2022-08-05T05:45:03.021Z,27.70
2022-08-05T05:46:05.235Z,27.80
2022-08-05T05:47:21.799Z,27.90
2022-08-05T05:48:27.354Z,27.90
2022-08-05T05:49:29.532Z,28.00
2022-08-05T05:50:31.381Z,28.10
2022-08-05T05:51:49.562Z,28.20
2022-08-05T05:52:52.374Z,28.30
2022-08-05T05:53:58.882Z,28.40
2022-08-05T05:55:02.213Z,28.40
2022-08-05T05:56:09.596Z,28.60
2022-08-05T05:57:13.911Z,28.70
2022-08-05T05:58:21.045Z,28.70
2022-08-05T05:59:33.206Z,28.80
2022-08-05T06:00:42.138Z,28.90
2022-08-05T06:01:57.218Z,29.00
2022-08-05T06:03:01.415Z,29.00
2022-08-05T06:04:03.827Z,29.10
2022-08-05T06:05:10.193Z,29.10
2022-08-05T06:06:18.036Z,29.10
2022-08-05T06:07:22.451Z,29.30
2022-08-05T06:08:31.645Z,29.30
2022-08-05T06:09:51.343Z,29.20
2022-08-05T06:10:56.380Z,29.30
2022-08-05T06:11:59.986Z,29.40
2022-08-05T06:13:04.976Z,29.40
2022-08-05T06:14:07.746Z,29.40
2022-08-05T06:15:16.429Z,29.40
2022-08-05T06:16:29.108Z,29.40
2022-08-05T06:17:52.675Z,29.40
2022-08-05T06:18:55.417Z,29.40
2022-08-05T06:20:02.408Z,29.50
2022-08-05T06:21:04.907Z,29.30
2022-08-05T06:22:10.051Z,29.30
2022-08-05T06:23:12.178Z,29.30
2022-08-05T06:24:14.796Z,29.30
2022-08-05T06:25:59.142Z,29.30
2022-08-05T06:26:38.247Z,29.40
2022-08-05T06:28:11.644Z,29.40
2022-08-05T06:29:03.478Z,29.40
2022-08-05T06:30:19.856Z,29.40
2022-08-05T06:31:22.790Z,29.40
2022-08-05T06:32:33.758Z,29.40
2022-08-05T06:34:07.817Z,29.40
2022-08-05T06:35:05.806Z,29.40
2022-08-05T06:36:17.021Z,29.40
2022-08-05T06:37:52.276Z,29.40
2022-08-05T06:38:40.433Z,29.40
2022-08-05T06:39:48.824Z,29.40
2022-08-05T06:40:54.425Z,29.50
2022-08-05T06:41:58.862Z,29.50
2022-08-05T06:43:00.801Z,29.50
2022-08-05T06:44:02.567Z,29.50
2022-08-05T06:45:08.297Z,29.50
2022-08-05T06:46:10.717Z,29.40
2022-08-05T06:48:11.341Z,29.50
2022-08-05T06:48:54.534Z,29.50
2022-08-05T06:50:01.385Z,29.60
2022-08-05T06:51:09.558Z,29.70
2022-08-05T06:52:37.259Z,29.60
2022-08-05T06:53:33.597Z,29.50
2022-08-05T06:54:41.125Z,29.50
2022-08-05T06:55:42.880Z,29.50
2022-08-05T06:56:55.163Z,29.40
2022-08-05T06:58:19.809Z,29.50
2022-08-05T06:59:30.657Z,29.60
2022-08-05T07:00:41.142Z,29.50
2022-08-05T07:01:43.085Z,29.40
2022-08-05T07:02:48.055Z,29.50
2022-08-05T07:03:55.917Z,29.50
2022-08-05T07:04:57.693Z,29.50
2022-08-05T07:06:06.196Z,29.50
2022-08-05T07:07:16.310Z,29.50
2022-08-05T07:08:27.801Z,29.50
2022-08-05T07:09:32.351Z,29.50
2022-08-05T07:10:52.900Z,29.40
2022-08-05T07:11:56.329Z,29.20
2022-08-05T07:13:56.751Z,29.20
2022-08-05T07:15:01.698Z,29.10
2022-08-05T07:18:00.539Z,29.10
2022-08-05T07:18:02.424Z,29.00
2022-08-05T07:19:07.329Z,29.00
2022-08-05T07:22:00.164Z,28.90
2022-08-05T07:22:53.081Z,28.90
2022-08-05T07:23:54.789Z,28.90
2022-08-05T07:24:58.410Z,28.90
2022-08-05T07:26:00.819Z,29.00
2022-08-05T07:27:03.898Z,29.00
2022-08-05T07:28:19.817Z,29.00
2022-08-05T07:29:25.321Z,28.90
2022-08-05T07:30:43.302Z,29.00
2022-08-05T07:31:54.523Z,29.00
2022-08-05T07:32:57.484Z,29.00
2022-08-05T07:33:59.836Z,29.00
2022-08-05T07:35:01.650Z,29.10
2022-08-05T07:36:23.505Z,29.10
2022-08-05T07:37:29.070Z,29.30
2022-08-05T07:38:43.094Z,29.20
2022-08-05T07:40:04.745Z,29.30
2022-08-05T07:42:09.441Z,29.30
2022-08-05T07:42:34.032Z,29.30
2022-08-05T07:43:38.322Z,29.20
2022-08-05T07:44:39.964Z,29.10
2022-08-05T07:45:56.968Z,29.10
2022-08-05T07:46:59.562Z,29.20
2022-08-05T07:48:02.783Z,29.20
2022-08-05T07:49:06.169Z,29.30
2022-08-05T07:50:10.205Z,29.30
2022-08-05T07:51:23.474Z,29.40
2022-08-05T07:52:39.073Z,29.40
2022-08-05T07:53:50.291Z,29.50
2022-08-05T07:54:53.045Z,29.50
2022-08-05T07:56:05.670Z,29.60
2022-08-05T07:57:17.860Z,29.70
2022-08-05T07:58:54.851Z,29.70
2022-08-05T07:59:53.471Z,29.80
2022-08-05T08:00:55.646Z,29.90
2022-08-05T08:01:57.626Z,29.90
2022-08-05T08:03:13.811Z,29.90
2022-08-05T08:04:17.217Z,29.90
2022-08-05T08:05:39.486Z,30.00
2022-08-05T08:06:41.853Z,30.10
2022-08-05T08:07:59.678Z,30.00
2022-08-05T08:09:02.476Z,30.00
2022-08-05T08:10:05.232Z,30.00
2022-08-05T08:11:08.902Z,30.00
2022-08-05T08:12:35.331Z,30.00
2022-08-05T08:13:49.331Z,30.00
2022-08-05T08:14:57.290Z,30.10
2022-08-05T08:16:49.648Z,30.10
2022-08-05T08:17:27.790Z,30.10
2022-08-05T08:18:29.694Z,30.20
2022-08-05T08:20:10.213Z,30.10
2022-08-05T08:21:03.095Z,30.10
2022-08-05T08:22:09.140Z,30.10
2022-08-05T08:23:59.714Z,30.10
2022-08-05T08:24:51.591Z,30.10
2022-08-05T08:25:59.961Z,30.10
2022-08-05T08:27:07.057Z,30.00
2022-08-05T08:28:18.390Z,30.00
2022-08-05T08:30:03.842Z,29.90
2022-08-05T08:30:52.369Z,29.80
2022-08-05T08:31:54.443Z,29.80
2022-08-05T08:32:56.183Z,29.80
2022-08-05T08:33:58.959Z,29.80
2022-08-05T08:35:01.033Z,29.80
2022-08-05T08:36:29.526Z,29.70
2022-08-05T08:37:28.033Z,29.70
2022-08-05T08:38:36.101Z,29.80
2022-08-05T08:39:49.256Z,29.80
2022-08-05T08:40:51.903Z,30.00
2022-08-05T08:41:59.863Z,29.90
2022-08-05T08:44:57.883Z,30.00
2022-08-05T08:45:23.002Z,30.00
2022-08-05T08:45:54.435Z,30.10
2022-08-05T08:46:57.072Z,30.20
2022-08-05T08:48:12.514Z,30.20
2022-08-05T08:50:22.252Z,30.20
2022-08-05T08:51:03.550Z,30.20
2022-08-05T08:52:16.967Z,30.20
2022-08-05T08:53:18.936Z,30.30
2022-08-05T08:54:21.252Z,30.30
2022-08-05T08:56:01.528Z,30.30
2022-08-05T08:56:51.102Z,30.40
2022-08-05T08:57:58.441Z,30.40
2022-08-05T08:59:07.069Z,30.50
2022-08-05T09:00:19.400Z,30.50
2022-08-05T09:01:21.483Z,30.40
2022-08-05T09:02:26.942Z,30.40
2022-08-05T09:03:40.718Z,30.50
2022-08-05T09:05:16.665Z,30.50
2022-08-05T09:06:11.130Z,30.60
2022-08-05T09:07:19.617Z,30.70
2022-08-05T09:08:31.062Z,30.70
2022-08-05T09:09:38.084Z,30.70
2022-08-05T09:10:42.046Z,30.80
2022-08-05T09:11:53.760Z,30.80
2022-08-05T09:13:04.528Z,30.80
2022-08-05T09:14:54.265Z,30.90
2022-08-05T09:15:30.432Z,30.90
2022-08-05T09:16:32.452Z,30.90
2022-08-05T09:17:42.899Z,31.00
2022-08-05T09:18:51.358Z,31.00
2022-08-05T09:20:02.351Z,31.00
2022-08-05T09:21:05.821Z,31.00
2022-08-05T09:22:23.456Z,31.00
2022-08-05T09:23:37.453Z,31.10
2022-08-05T09:25:01.141Z,31.10
2022-08-05T09:26:21.133Z,31.10
2022-08-05T09:28:03.758Z,31.10
2022-08-05T09:29:04.713Z,31.20
2022-08-05T09:30:07.305Z,31.20
2022-08-05T09:31:22.637Z,31.10
2022-08-05T09:32:50.261Z,31.10
2022-08-05T09:34:13.706Z,31.20
2022-08-05T09:35:26.632Z,31.20
2022-08-05T09:36:54.638Z,31.20
2022-08-05T09:38:18.485Z,31.10
2022-08-05T09:39:22.457Z,31.10
2022-08-05T09:40:39.245Z,31.10
2022-08-05T09:42:00.685Z,31.10
2022-08-05T09:43:08.403Z,31.10
2022-08-05T09:44:11.192Z,31.20
2022-08-05T09:46:05.036Z,31.20
2022-08-05T09:46:35.032Z,31.30
2022-08-05T09:47:55.661Z,31.30
2022-08-05T09:49:06.870Z,31.40
2022-08-05T09:50:10.117Z,31.40
2022-08-05T09:51:14.790Z,31.40
2022-08-05T09:52:26.382Z,31.40
2022-08-05T09:53:54.085Z,31.50
2022-08-05T09:55:55.062Z,31.50
2022-08-05T09:56:28.303Z,31.50
2022-08-05T09:57:35.222Z,31.50
2022-08-05T09:58:37.229Z,31.50
2022-08-05T09:59:47.942Z,31.50
2022-08-05T10:01:14.649Z,31.50
2022-08-05T10:02:34.480Z,31.50
2022-08-05T10:03:56.825Z,31.50
2022-08-05T10:05:09.788Z,31.50
2022-08-05T10:06:15.851Z,31.50
2022-08-05T10:07:20.883Z,31.50
2022-08-05T10:08:42.351Z,31.50
2022-08-05T10:10:15.264Z,31.60
2022-08-05T10:11:17.977Z,31.70
2022-08-05T10:12:33.936Z,31.70
2022-08-05T10:13:45.800Z,31.70
2022-08-05T10:14:49.979Z,31.70
2022-08-05T10:15:58.453Z,31.70
2022-08-05T10:17:37.168Z,31.70
2022-08-05T10:18:39.984Z,31.70
2022-08-05T10:20:03.689Z,31.60
2022-08-05T10:21:11.885Z,31.50
2022-08-05T10:22:30.175Z,31.50
2022-08-05T10:23:59.947Z,31.50
2022-08-05T10:25:01.429Z,31.50
2022-08-05T10:26:14.278Z,31.50
2022-08-05T10:27:16.881Z,31.50
2022-08-05T10:28:29.451Z,31.50
2022-08-05T10:30:06.335Z,31.60
2022-08-05T10:32:49.686Z,31.70
2022-08-05T10:32:54.653Z,31.70
2022-08-05T10:33:44.569Z,31.70
2022-08-05T10:34:46.594Z,31.70
2022-08-05T10:36:00.018Z,31.80
2022-08-05T10:37:02.481Z,31.80
2022-08-05T10:38:06.435Z,31.80
2022-08-05T10:39:24.859Z,31.80
2022-08-05T10:40:51.999Z,31.80
2022-08-05T10:42:18.827Z,31.80
2022-08-05T10:43:59.276Z,31.80
2022-08-05T10:45:09.631Z,31.90
2022-08-05T10:46:24.282Z,31.80
2022-08-05T10:47:33.194Z,31.80
2022-08-05T10:48:57.181Z,31.80
2022-08-05T10:50:31.629Z,31.80
2022-08-05T10:51:59.784Z,31.90
2022-08-05T10:53:02.357Z,31.90
2022-08-05T10:54:23.115Z,31.90
2022-08-05T10:55:27.715Z,31.90
2022-08-05T10:56:36.500Z,31.90
2022-08-05T10:57:41.596Z,32.00
2022-08-05T10:58:51.109Z,32.00
2022-08-05T11:00:18.249Z,32.00
2022-08-05T11:01:53.997Z,32.10
2022-08-05T11:03:24.776Z,32.20
2022-08-05T11:04:28.012Z,32.30
2022-08-05T11:05:36.098Z,32.40
2022-08-05T11:07:02.869Z,32.40
2022-08-05T11:08:27.637Z,32.50
2022-08-05T11:09:46.158Z,32.60
2022-08-05T11:10:50.044Z,32.60
2022-08-05T11:12:03.114Z,32.70
2022-08-05T11:13:06.721Z,32.80
2022-08-05T11:14:10.689Z,32.80
2022-08-05T11:15:21.292Z,32.80
2022-08-05T11:16:47.363Z,32.80
2022-08-05T11:17:59.385Z,32.90
2022-08-05T11:20:16.613Z,32.90
2022-08-05T11:20:51.339Z,33.00
2022-08-05T11:21:55.041Z,33.00
2022-08-05T11:23:08.768Z,33.10
2022-08-05T11:24:29.764Z,33.00
2022-08-05T11:26:04.585Z,33.10
2022-08-05T11:27:45.818Z,33.10
2022-08-05T11:28:54.858Z,33.20
2022-08-05T11:30:00.515Z,33.20
2022-08-05T11:31:02.133Z,33.20
2022-08-05T11:32:26.379Z,33.20
2022-08-05T11:33:46.273Z,33.30
2022-08-05T11:34:53.884Z,33.30
2022-08-05T11:36:07.565Z,33.40
2022-08-05T11:38:28.730Z,33.50
2022-08-05T11:38:54.432Z,33.50
2022-08-05T11:40:02.726Z,33.60
2022-08-05T11:41:34.735Z,33.60
2022-08-05T11:42:28.736Z,33.60
2022-08-05T11:43:58.484Z,33.60
2022-08-05T11:45:01.301Z,33.60
2022-08-05T11:46:16.045Z,33.60
2022-08-05T11:47:49.059Z,33.60
2022-08-05T11:48:48.977Z,33.60
2022-08-05T11:50:08.294Z,33.70
2022-08-05T11:51:10.885Z,33.70
2022-08-05T11:52:12.729Z,33.70
2022-08-05T11:53:15.463Z,33.80
2022-08-05T11:54:33.355Z,33.80
2022-08-05T11:55:36.220Z,33.90
2022-08-05T11:56:50.277Z,33.90
2022-08-05T11:58:09.587Z,33.90
2022-08-05T11:59:23.093Z,34.00
2022-08-05T12:00:30.435Z,34.00
2022-08-05T12:01:32.357Z,34.00
2022-08-05T12:02:36.225Z,34.10
2022-08-05T12:03:56.125Z,34.20
2022-08-05T12:04:59.862Z,34.20
2022-08-05T12:06:10.225Z,34.20
2022-08-05T12:07:14.748Z,34.30
2022-08-05T12:08:18.299Z,34.40
2022-08-05T12:09:38.690Z,34.40
2022-08-05T12:10:51.754Z,34.50
2022-08-05T12:11:54.894Z,34.60
2022-08-05T12:13:14.618Z,34.70
2022-08-05T12:14:18.889Z,34.70
2022-08-05T12:15:34.626Z,34.80
2022-08-05T12:16:45.600Z,34.80
2022-08-05T12:18:02.738Z,34.80
2022-08-05T12:19:08.163Z,34.70
2022-08-05T12:20:26.159Z,34.60
2022-08-05T12:21:34.248Z,34.50
2022-08-05T12:22:40.990Z,34.40
2022-08-05T12:24:07.063Z,34.30
2022-08-05T12:25:09.456Z,34.20
2022-08-05T12:26:16.057Z,34.10
2022-08-05T12:27:25.461Z,34.00
2022-08-05T12:28:38.075Z,34.00
2022-08-05T12:29:39.799Z,34.00
2022-08-05T12:30:45.815Z,33.90
2022-08-05T12:31:57.181Z,33.90
2022-08-05T12:33:07.310Z,33.90
2022-08-05T12:34:28.267Z,33.90
2022-08-05T12:35:36.906Z,33.90
2022-08-05T12:36:42.871Z,34.00
2022-08-05T12:37:46.777Z,34.10
2022-08-05T12:38:50.396Z,34.10
2022-08-05T12:39:53.920Z,34.20
2022-08-05T12:40:57.217Z,34.10
2022-08-05T12:41:59.742Z,34.00
2022-08-05T12:43:01.481Z,34.00
2022-08-05T12:44:06.528Z,34.00
2022-08-05T12:45:14.596Z,34.00
2022-08-05T12:46:32.599Z,33.90
2022-08-05T12:47:34.752Z,34.00
2022-08-05T12:48:39.975Z,34.00
2022-08-05T12:50:02.329Z,33.90
2022-08-05T12:51:21.869Z,34.10
2022-08-05T12:52:42.348Z,33.90
2022-08-05T12:53:47.456Z,33.90
2022-08-05T12:54:57.677Z,33.90
2022-08-05T12:56:00.755Z,33.90
2022-08-05T12:57:09.303Z,33.90
2022-08-05T12:58:51.068Z,34.00
2022-08-05T13:01:57.042Z,34.20
2022-08-05T13:02:00.105Z,34.30
2022-08-05T13:02:39.898Z,34.60
2022-08-05T13:03:43.306Z,34.60
2022-08-05T13:04:52.629Z,34.80
2022-08-05T13:05:56.668Z,34.90
2022-08-05T13:07:00.497Z,35.00
2022-08-05T13:08:05.046Z,35.00
2022-08-05T13:09:12.734Z,35.00
2022-08-05T13:10:19.838Z,35.00
2022-08-05T13:12:01.074Z,35.00
2022-08-05T13:12:51.006Z,35.00
2022-08-05T13:14:06.089Z,35.00
2022-08-05T13:15:18.024Z,34.90
2022-08-05T13:16:28.017Z,35.00
2022-08-05T13:17:41.865Z,35.10
2022-08-05T13:18:51.599Z,35.20
2022-08-05T13:20:02.257Z,35.40
2022-08-05T13:21:04.699Z,35.40
2022-08-05T13:22:06.420Z,35.40
2022-08-05T13:23:09.070Z,35.50
2022-08-05T13:24:11.061Z,35.60
2022-08-05T13:25:19.369Z,35.70
2022-08-05T13:26:30.196Z,35.90
2022-08-05T13:27:39.419Z,36.00
2022-08-05T13:28:44.029Z,36.10
2022-08-05T13:30:31.428Z,36.20
2022-08-05T13:31:13.864Z,36.30
2022-08-05T13:32:21.571Z,36.30
2022-08-05T13:34:22.726Z,36.40
2022-08-05T13:34:56.642Z,36.50
2022-08-05T13:36:02.011Z,36.30
2022-08-05T13:37:07.142Z,36.20
2022-08-05T13:38:09.068Z,36.10
2022-08-05T13:40:14.008Z,36.10
2022-08-05T13:40:50.040Z,36.10
2022-08-05T13:41:53.939Z,36.10
2022-08-05T13:42:57.490Z,36.20
2022-08-05T13:43:59.406Z,36.20
2022-08-05T13:45:01.783Z,36.20
2022-08-05T13:46:03.482Z,36.30
2022-08-05T13:47:09.023Z,36.40
2022-08-05T13:48:57.268Z,36.50
2022-08-05T13:49:35.303Z,36.60
2022-08-05T13:50:37.271Z,36.70
2022-08-05T13:51:46.362Z,36.60
2022-08-05T13:52:49.867Z,36.50
2022-08-05T13:53:51.783Z,36.40
2022-08-05T13:55:01.131Z,36.40
2022-08-05T13:56:03.305Z,36.30
2022-08-05T13:57:05.227Z,36.30
2022-08-05T13:58:11.036Z,36.30
2022-08-05T13:59:20.349Z,36.40
2022-08-05T14:00:26.882Z,36.50
2022-08-05T14:01:44.155Z,36.50
2022-08-05T14:02:48.459Z,36.40
2022-08-05T14:04:14.004Z,36.30
2022-08-05T14:05:19.444Z,36.20
2022-08-05T14:06:31.424Z,36.10
2022-08-05T14:07:59.794Z,36.00
2022-08-05T14:09:01.314Z,36.10
2022-08-05T14:10:03.778Z,35.80
2022-08-05T14:11:20.609Z,35.80
2022-08-05T14:12:32.177Z,35.70
2022-08-05T14:13:34.569Z,35.70
2022-08-05T14:14:36.298Z,35.60
2022-08-05T14:16:09.179Z,35.60
2022-08-05T14:17:00.117Z,35.50
2022-08-05T14:18:02.981Z,35.50
2022-08-05T14:19:09.460Z,35.50
2022-08-05T14:20:18.503Z,35.40
2022-08-05T14:22:07.203Z,35.40
2022-08-05T14:22:50.112Z,35.30
2022-08-05T14:23:52.198Z,35.20
2022-08-05T14:24:55.346Z,35.10
2022-08-05T14:25:58.412Z,35.00
2022-08-05T14:27:17.725Z,35.00
2022-08-05T14:28:26.748Z,34.90
2022-08-05T14:29:29.352Z,34.80
2022-08-05T14:30:33.081Z,34.70
2022-08-05T14:32:02.858Z,34.60
2022-08-05T14:32:57.122Z,34.60
2022-08-05T14:34:00.849Z,34.50
2022-08-05T14:35:04.148Z,34.40
2022-08-05T14:36:12.502Z,34.30
2022-08-05T14:37:14.223Z,34.20
2022-08-05T14:38:31.593Z,34.30
2022-08-05T14:39:50.246Z,34.00
2022-08-05T14:40:56.979Z,34.00
2022-08-05T14:42:19.330Z,33.90
2022-08-05T14:43:21.106Z,33.80
2022-08-05T14:44:43.120Z,33.90
2022-08-05T14:45:44.816Z,33.80
2022-08-05T14:46:46.528Z,33.70
2022-08-05T14:48:03.183Z,33.70
2022-08-05T14:49:08.150Z,33.80
2022-08-05T14:50:17.783Z,33.70
2022-08-05T14:51:21.196Z,33.70
2022-08-05T14:52:50.496Z,33.70
2022-08-05T14:53:45.548Z,33.60
2022-08-05T14:55:08.521Z,33.60
2022-08-05T14:56:16.311Z,33.50
2022-08-05T14:57:24.641Z,33.50
2022-08-05T14:58:35.702Z,33.50
2022-08-05T14:59:37.615Z,33.40
2022-08-05T15:00:59.612Z,33.30
2022-08-05T15:02:03.073Z,33.30
2022-08-05T15:03:09.627Z,33.30
2022-08-05T15:04:11.903Z,33.30
2022-08-05T15:05:14.462Z,33.20
2022-08-05T15:06:16.250Z,33.20
2022-08-05T15:08:09.169Z,33.20
2022-08-05T15:08:58.133Z,33.10
2022-08-05T15:10:01.589Z,33.20
2022-08-05T15:11:08.060Z,33.20
2022-08-05T15:12:11.727Z,33.10